Chunky, Mississippi
Current Conditions -  °F | °C
As of 4:58 AM on Sunday 21 Dec 2014 (Local Time) from KMEI Reporting Station
Overcast Overcast  
Wind Chill: 32°   Ceiling: 2300
Heat Index: 36°   Visibility: 10mi
Dew Point: 34°   Wind: 5mph
Humidity: 93%   Direction: 360°N
Pressure: 30.16"   Gusts: NA
Location:  32.33°N, 88.93°W
Report Text: KMEI 211058Z AUTO 36004KT 10SM OVC023 02/01 A3016 RMK AO2 SLP212 T00220011
Loading
Personal Weather Stations






























Interactive Weather Map New forecast layout! Learn more

10-Day Weather Forecast

Advertisements
Track Severe Weather on mobile